VOE2824 LFRB-LFKF
Flight info
| Callsign | VOE2824 |
|---|---|
| Flight time | 1h 40m |
| Altitude | 37000 |
| Route | QPR DCT TOFLO DCT GALOF DCT ESISI DCT FJR Y25 SALIN Y341 BULTO UY342 PADKO DCT VAREK |
| Aircraft | A319/M-SDE3FGHIRWY/LB1 |
Departure
| Time | 2026-04-22 20:37 |
|---|---|
| Airport | Brest Bretagne airport (LFRB) |
Arrival
| Time | 2026-04-22 22:17 |
|---|---|
| Airport | Figari Sud-Corse Airport (LFKF) |
| Time | Latitude | Longitude | Altitude | Speed | Heading |
|---|---|---|---|---|---|
| 2026-04-22 20:23 | 48.44422 | -4.42034 | 324 ft | 0 kts | 161° |
| 2026-04-22 20:29 | 48.44438 | -4.42042 | 323 ft | 4 kts | 161° |
| 2026-04-22 20:30 | 48.44461 | -4.42054 | 322 ft | 2 kts | 162° |
| 2026-04-22 20:30 | 48.44484 | -4.42061 | 323 ft | 4 kts | 190° |
| 2026-04-22 20:30 | 48.44506 | -4.42045 | 323 ft | 4 kts | 233° |
| 2026-04-22 20:30 | 48.44514 | -4.42023 | 322 ft | 0 kts | 256° |
| 2026-04-22 20:33 | 48.44513 | -4.42028 | 322 ft | 3 kts | 256° |
| 2026-04-22 20:33 | 48.44523 | -4.42091 | 323 ft | 4 kts | 13° |
| 2026-04-22 20:33 | 48.44609 | -4.42124 | 322 ft | 24 kts | 340° |
| 2026-04-22 20:34 | 48.44664 | -4.42154 | 321 ft | 0 kts | 340° |
| 2026-04-22 20:34 | 48.44669 | -4.42156 | 319 ft | 2 kts | 340° |
| 2026-04-22 20:34 | 48.44696 | -4.42273 | 318 ft | 31 kts | 259° |
| 2026-04-22 20:34 | 48.44601 | -4.42659 | 307 ft | 42 kts | 252° |
| 2026-04-22 20:35 | 48.44510 | -4.43080 | 301 ft | 43 kts | 251° |
| 2026-04-22 20:35 | 48.44416 | -4.43492 | 302 ft | 41 kts | 251° |
| 2026-04-22 20:35 | 48.44385 | -4.43807 | 301 ft | 7 kts | 288° |
| 2026-04-22 20:35 | 48.44353 | -4.43797 | 299 ft | 9 kts | 117° |
| 2026-04-22 20:36 | 48.44366 | -4.43710 | 301 ft | 1 kts | 71° |
| 2026-04-22 20:36 | 48.44372 | -4.43684 | 299 ft | 14 kts | 71° |
| 2026-04-22 20:36 | 48.44493 | -4.43140 | 303 ft | 93 kts | 71° |
| 2026-04-22 20:36 | 48.44772 | -4.41910 | 330 ft | 151 kts | 71° |
| 2026-04-22 20:37 | 48.45128 | -4.40364 | 897 ft | 156 kts | 71° |
| 2026-04-22 20:37 | 48.45132 | -4.38654 | 1289 ft | 180 kts | 114° |
| 2026-04-22 20:37 | 48.44245 | -4.37135 | 1664 ft | 208 kts | 135° |
| 2026-04-22 20:37 | 48.43145 | -4.35534 | 2247 ft | 230 kts | 134° |
| 2026-04-22 20:38 | 48.41989 | -4.33784 | 3139 ft | 239 kts | 134° |
| 2026-04-22 20:38 | 48.40811 | -4.31971 | 4069 ft | 245 kts | 134° |
| 2026-04-22 20:38 | 48.39603 | -4.30102 | 4929 ft | 254 kts | 133° |
| 2026-04-22 20:38 | 48.38342 | -4.28178 | 5778 ft | 262 kts | 137° |
| 2026-04-22 20:39 | 48.36931 | -4.26466 | 6701 ft | 265 kts | 142° |
| 2026-04-22 20:39 | 48.35451 | -4.24773 | 7603 ft | 269 kts | 143° |
| 2026-04-22 20:39 | 48.33919 | -4.23056 | 8496 ft | 273 kts | 143° |
| 2026-04-22 20:39 | 48.32382 | -4.21338 | 9389 ft | 278 kts | 144° |
| 2026-04-22 20:40 | 48.30839 | -4.19610 | 10232 ft | 282 kts | 144° |
| 2026-04-22 20:40 | 48.29204 | -4.17779 | 10605 ft | 305 kts | 144° |
| 2026-04-22 20:40 | 48.27430 | -4.15787 | 10869 ft | 329 kts | 144° |
| 2026-04-22 20:40 | 48.25538 | -4.13656 | 11138 ft | 350 kts | 143° |
| 2026-04-22 20:41 | 48.23567 | -4.11432 | 11720 ft | 358 kts | 143° |
| 2026-04-22 20:41 | 48.21561 | -4.09163 | 12418 ft | 363 kts | 143° |
| 2026-04-22 20:41 | 48.19531 | -4.06870 | 13167 ft | 367 kts | 143° |
| 2026-04-22 20:41 | 48.17477 | -4.04555 | 13866 ft | 372 kts | 143° |
| 2026-04-22 20:42 | 48.15394 | -4.02211 | 14457 ft | 378 kts | 143° |
| 2026-04-22 20:42 | 48.13276 | -3.99836 | 15050 ft | 383 kts | 144° |
| 2026-04-22 20:42 | 48.11134 | -3.97439 | 15661 ft | 387 kts | 144° |
| 2026-04-22 20:42 | 48.08963 | -3.95013 | 16275 ft | 391 kts | 144° |
| 2026-04-22 20:43 | 48.06773 | -3.92567 | 16876 ft | 395 kts | 144° |
| 2026-04-22 20:43 | 48.04560 | -3.90096 | 17481 ft | 399 kts | 144° |
| 2026-04-22 20:43 | 48.02323 | -3.87597 | 18080 ft | 404 kts | 144° |
| 2026-04-22 20:43 | 48.00060 | -3.85075 | 18659 ft | 408 kts | 144° |
| 2026-04-22 20:44 | 47.97780 | -3.82536 | 19194 ft | 411 kts | 144° |
| 2026-04-22 20:44 | 47.95485 | -3.79980 | 19693 ft | 415 kts | 144° |
| 2026-04-22 20:44 | 47.93154 | -3.77387 | 20165 ft | 419 kts | 144° |
| 2026-04-22 20:44 | 47.90807 | -3.74781 | 20664 ft | 422 kts | 144° |
| 2026-04-22 20:45 | 47.88447 | -3.72167 | 21202 ft | 424 kts | 144° |
| 2026-04-22 20:45 | 47.86074 | -3.69542 | 21721 ft | 426 kts | 144° |
| 2026-04-22 20:45 | 47.83687 | -3.66902 | 22215 ft | 429 kts | 144° |
| 2026-04-22 20:45 | 47.81284 | -3.64249 | 22692 ft | 431 kts | 144° |
| 2026-04-22 20:46 | 47.76459 | -3.58937 | 23600 ft | 437 kts | 144° |
| 2026-04-22 20:46 | 47.74014 | -3.56244 | 23983 ft | 439 kts | 144° |
| 2026-04-22 20:46 | 47.71548 | -3.53531 | 24345 ft | 442 kts | 144° |
| 2026-04-22 20:47 | 47.69067 | -3.50806 | 24706 ft | 445 kts | 144° |
| 2026-04-22 20:47 | 47.66570 | -3.48069 | 25048 ft | 448 kts | 144° |
| 2026-04-22 20:47 | 47.64051 | -3.45314 | 25385 ft | 451 kts | 144° |
| 2026-04-22 20:47 | 47.61520 | -3.42549 | 25716 ft | 454 kts | 145° |
| 2026-04-22 20:48 | 47.58969 | -3.39764 | 26042 ft | 457 kts | 145° |
| 2026-04-22 20:48 | 47.56400 | -3.36958 | 26353 ft | 460 kts | 145° |
| 2026-04-22 20:48 | 47.53813 | -3.34138 | 26673 ft | 463 kts | 145° |
| 2026-04-22 20:48 | 47.51212 | -3.31310 | 26959 ft | 466 kts | 145° |
| 2026-04-22 20:49 | 47.48583 | -3.28456 | 27244 ft | 469 kts | 145° |
| 2026-04-22 20:49 | 47.45944 | -3.25590 | 27537 ft | 472 kts | 145° |
| 2026-04-22 20:49 | 47.43294 | -3.22713 | 27829 ft | 475 kts | 145° |
| 2026-04-22 20:49 | 47.40620 | -3.19818 | 28108 ft | 478 kts | 146° |
| 2026-04-22 20:50 | 47.37927 | -3.16908 | 28393 ft | 480 kts | 146° |
| 2026-04-22 20:50 | 47.35225 | -3.13990 | 28671 ft | 483 kts | 146° |
| 2026-04-22 20:50 | 47.32506 | -3.11058 | 28938 ft | 485 kts | 146° |
| 2026-04-22 20:50 | 47.29780 | -3.08119 | 29331 ft | 485 kts | 146° |
| 2026-04-22 20:51 | 47.27057 | -3.05187 | 29729 ft | 485 kts | 146° |
| 2026-04-22 20:51 | 47.24334 | -3.02259 | 30118 ft | 485 kts | 146° |
| 2026-04-22 20:51 | 47.21610 | -2.99334 | 30468 ft | 485 kts | 146° |
| 2026-04-22 20:51 | 47.18915 | -2.96447 | 30815 ft | 484 kts | 146° |
| 2026-04-22 20:52 | 47.16193 | -2.93535 | 31174 ft | 484 kts | 146° |
| 2026-04-22 20:52 | 47.13475 | -2.90630 | 31553 ft | 483 kts | 146° |
| 2026-04-22 20:52 | 47.10765 | -2.87734 | 31927 ft | 482 kts | 147° |
| 2026-04-22 20:52 | 47.08050 | -2.84838 | 32249 ft | 482 kts | 147° |
| 2026-04-22 20:53 | 47.05333 | -2.81941 | 32574 ft | 483 kts | 147° |
| 2026-04-22 20:53 | 47.02614 | -2.79047 | 32926 ft | 483 kts | 147° |
| 2026-04-22 20:53 | 46.99896 | -2.76160 | 33291 ft | 482 kts | 147° |
| 2026-04-22 20:53 | 46.97179 | -2.73283 | 33670 ft | 482 kts | 147° |
| 2026-04-22 20:54 | 46.94466 | -2.70410 | 34056 ft | 481 kts | 147° |
| 2026-04-22 20:54 | 46.91763 | -2.67552 | 34400 ft | 479 kts | 147° |
| 2026-04-22 20:54 | 46.89066 | -2.64701 | 34763 ft | 478 kts | 147° |
| 2026-04-22 20:54 | 46.86370 | -2.61853 | 35106 ft | 477 kts | 147° |
| 2026-04-22 20:55 | 46.83681 | -2.59016 | 35431 ft | 476 kts | 147° |
| 2026-04-22 20:55 | 46.80998 | -2.56192 | 35746 ft | 476 kts | 147° |
| 2026-04-22 20:55 | 46.78311 | -2.53369 | 36045 ft | 475 kts | 147° |
| 2026-04-22 20:55 | 46.75627 | -2.50555 | 36321 ft | 475 kts | 147° |
| 2026-04-22 20:56 | 46.72944 | -2.47743 | 36611 ft | 475 kts | 147° |
| 2026-04-22 20:56 | 46.70264 | -2.44942 | 36887 ft | 474 kts | 148° |
| 2026-04-22 20:56 | 46.67581 | -2.42139 | 37075 ft | 475 kts | 147° |
| 2026-04-22 20:56 | 46.64884 | -2.39320 | 37104 ft | 477 kts | 147° |
| 2026-04-22 20:57 | 46.59476 | -2.33684 | 37091 ft | 478 kts | 148° |
| 2026-04-22 20:57 | 46.54067 | -2.28055 | 37076 ft | 478 kts | 147° |
| 2026-04-22 20:58 | 46.48667 | -2.22438 | 37091 ft | 477 kts | 147° |
| 2026-04-22 20:58 | 46.43267 | -2.16856 | 37089 ft | 476 kts | 148° |
| 2026-04-22 20:59 | 46.37866 | -2.11285 | 37085 ft | 476 kts | 148° |
| 2026-04-22 20:59 | 46.32504 | -2.05761 | 37079 ft | 476 kts | 148° |
| 2026-04-22 21:00 | 46.27098 | -2.00199 | 37083 ft | 476 kts | 148° |
| 2026-04-22 21:00 | 46.21691 | -1.94665 | 37077 ft | 477 kts | 148° |
| 2026-04-22 21:01 | 46.16274 | -1.89132 | 37070 ft | 477 kts | 148° |
| 2026-04-22 21:01 | 46.10847 | -1.83594 | 37061 ft | 477 kts | 148° |
| 2026-04-22 21:02 | 46.05426 | -1.78081 | 37066 ft | 477 kts | 148° |
| 2026-04-22 21:02 | 46.00026 | -1.72598 | 37073 ft | 477 kts | 148° |
| 2026-04-22 21:03 | 45.94932 | -1.66477 | 37059 ft | 481 kts | 133° |
| 2026-04-22 21:03 | 45.91255 | -1.58446 | 37056 ft | 484 kts | 115° |
| 2026-04-22 21:04 | 45.88457 | -1.49648 | 37056 ft | 484 kts | 115° |
| 2026-04-22 21:04 | 45.85636 | -1.40875 | 37056 ft | 485 kts | 115° |
| 2026-04-22 21:05 | 45.83276 | -1.33580 | 37048 ft | 485 kts | 115° |
| 2026-04-22 21:05 | 45.80426 | -1.24777 | 37054 ft | 486 kts | 115° |
| 2026-04-22 21:06 | 45.77583 | -1.15997 | 37055 ft | 486 kts | 115° |
| 2026-04-22 21:06 | 45.74731 | -1.07215 | 37048 ft | 487 kts | 115° |
| 2026-04-22 21:07 | 45.71864 | -0.98420 | 37053 ft | 487 kts | 115° |
| 2026-04-22 21:07 | 45.69002 | -0.89696 | 37051 ft | 487 kts | 115° |
| 2026-04-22 21:08 | 45.66117 | -0.80925 | 37056 ft | 487 kts | 115° |
| 2026-04-22 21:08 | 45.63227 | -0.72154 | 37066 ft | 488 kts | 115° |
| 2026-04-22 21:09 | 45.60328 | -0.63376 | 37068 ft | 489 kts | 115° |
| 2026-04-22 21:09 | 45.57416 | -0.54608 | 37059 ft | 489 kts | 115° |
| 2026-04-22 21:10 | 45.54486 | -0.45824 | 37067 ft | 489 kts | 115° |
| 2026-04-22 21:10 | 45.51582 | -0.37135 | 37076 ft | 489 kts | 115° |
| 2026-04-22 21:11 | 45.48651 | -0.28381 | 37073 ft | 489 kts | 116° |
| 2026-04-22 21:11 | 45.45714 | -0.19639 | 37086 ft | 489 kts | 116° |
| 2026-04-22 21:12 | 45.42769 | -0.10921 | 37077 ft | 489 kts | 116° |
| 2026-04-22 21:12 | 45.39817 | -0.02206 | 37083 ft | 489 kts | 116° |
| 2026-04-22 21:13 | 45.36859 | 0.06501 | 37070 ft | 489 kts | 116° |
| 2026-04-22 21:13 | 45.33900 | 0.15202 | 37078 ft | 489 kts | 116° |
| 2026-04-22 21:14 | 45.30927 | 0.23904 | 37074 ft | 489 kts | 116° |
| 2026-04-22 21:14 | 45.27942 | 0.32595 | 37079 ft | 490 kts | 116° |
| 2026-04-22 21:15 | 45.24968 | 0.41231 | 37082 ft | 490 kts | 116° |
| 2026-04-22 21:15 | 45.21972 | 0.49914 | 37076 ft | 490 kts | 116° |
| 2026-04-22 21:16 | 45.18966 | 0.58606 | 37056 ft | 491 kts | 116° |
| 2026-04-22 21:16 | 45.15952 | 0.67278 | 37075 ft | 490 kts | 116° |
| 2026-04-22 21:17 | 45.12931 | 0.75946 | 37078 ft | 490 kts | 116° |
| 2026-04-22 21:17 | 45.09900 | 0.84603 | 37084 ft | 491 kts | 116° |
| 2026-04-22 21:18 | 45.06856 | 0.93256 | 37079 ft | 491 kts | 116° |
| 2026-04-22 21:18 | 45.03832 | 1.01849 | 37082 ft | 491 kts | 116° |
| 2026-04-22 21:19 | 45.00778 | 1.10510 | 37085 ft | 492 kts | 116° |
| 2026-04-22 21:19 | 44.97722 | 1.19156 | 37095 ft | 492 kts | 115° |
| 2026-04-22 21:20 | 44.94644 | 1.27798 | 37081 ft | 493 kts | 116° |
| 2026-04-22 21:20 | 44.91555 | 1.36442 | 37077 ft | 493 kts | 116° |
| 2026-04-22 21:21 | 44.88249 | 1.44924 | 37082 ft | 494 kts | 124° |
| 2026-04-22 21:21 | 44.84341 | 1.52829 | 37116 ft | 495 kts | 125° |
| 2026-04-22 21:22 | 44.80393 | 1.60767 | 37103 ft | 495 kts | 124° |
| 2026-04-22 21:22 | 44.76431 | 1.68717 | 37108 ft | 496 kts | 124° |
| 2026-04-22 21:23 | 44.72466 | 1.76670 | 37113 ft | 496 kts | 124° |
| 2026-04-22 21:23 | 44.68493 | 1.84618 | 37122 ft | 497 kts | 124° |
| 2026-04-22 21:24 | 44.64515 | 1.92548 | 37148 ft | 497 kts | 124° |
| 2026-04-22 21:24 | 44.60517 | 2.00494 | 37144 ft | 498 kts | 124° |
| 2026-04-22 21:25 | 44.56518 | 2.08422 | 37128 ft | 498 kts | 124° |
| 2026-04-22 21:25 | 44.52512 | 2.16342 | 37138 ft | 498 kts | 124° |
| 2026-04-22 21:26 | 44.48493 | 2.24258 | 37142 ft | 498 kts | 124° |
| 2026-04-22 21:26 | 44.44503 | 2.32104 | 37170 ft | 498 kts | 124° |
| 2026-04-22 21:27 | 44.40468 | 2.40012 | 37159 ft | 499 kts | 124° |
| 2026-04-22 21:27 | 44.36428 | 2.47908 | 37150 ft | 499 kts | 124° |
| 2026-04-22 21:28 | 44.32391 | 2.55796 | 37156 ft | 499 kts | 124° |
| 2026-04-22 21:28 | 44.28345 | 2.63665 | 37163 ft | 499 kts | 124° |
| 2026-04-22 21:29 | 44.24292 | 2.71521 | 37187 ft | 499 kts | 124° |
| 2026-04-22 21:29 | 44.20234 | 2.79363 | 37183 ft | 499 kts | 124° |
| 2026-04-22 21:30 | 44.16168 | 2.87194 | 37172 ft | 499 kts | 124° |
| 2026-04-22 21:30 | 44.12130 | 2.94968 | 37183 ft | 498 kts | 124° |
| 2026-04-22 21:31 | 44.08056 | 3.02791 | 37186 ft | 498 kts | 125° |
| 2026-04-22 21:31 | 44.03981 | 3.10587 | 37207 ft | 499 kts | 124° |
| 2026-04-22 21:32 | 43.99898 | 3.18385 | 37197 ft | 499 kts | 125° |
| 2026-04-22 21:32 | 43.95810 | 3.26168 | 37181 ft | 499 kts | 125° |
| 2026-04-22 21:33 | 43.91722 | 3.33940 | 37189 ft | 499 kts | 125° |
| 2026-04-22 21:33 | 43.87621 | 3.41706 | 37200 ft | 499 kts | 125° |
| 2026-04-22 21:34 | 43.83543 | 3.49405 | 37202 ft | 498 kts | 125° |
| 2026-04-22 21:34 | 43.79425 | 3.57154 | 37208 ft | 498 kts | 125° |
| 2026-04-22 21:35 | 43.75308 | 3.64877 | 37198 ft | 498 kts | 125° |
| 2026-04-22 21:35 | 43.71192 | 3.72584 | 37205 ft | 498 kts | 125° |
| 2026-04-22 21:36 | 43.67075 | 3.80266 | 37209 ft | 497 kts | 125° |
| 2026-04-22 21:36 | 43.62982 | 3.87892 | 37215 ft | 497 kts | 125° |
| 2026-04-22 21:37 | 43.58868 | 3.95555 | 37209 ft | 496 kts | 124° |
| 2026-04-22 21:37 | 43.55417 | 4.03761 | 37188 ft | 493 kts | 116° |
| 2026-04-22 21:38 | 43.52222 | 4.12056 | 37196 ft | 493 kts | 116° |
| 2026-04-22 21:38 | 43.48989 | 4.20390 | 37225 ft | 493 kts | 116° |
| 2026-04-22 21:39 | 43.45750 | 4.28715 | 37210 ft | 493 kts | 116° |
| 2026-04-22 21:39 | 43.42521 | 4.37037 | 37199 ft | 493 kts | 116° |
| 2026-04-22 21:40 | 43.39281 | 4.45354 | 37194 ft | 493 kts | 116° |
| 2026-04-22 21:40 | 43.36040 | 4.53598 | 37188 ft | 493 kts | 116° |
| 2026-04-22 21:41 | 43.32738 | 4.61880 | 37187 ft | 493 kts | 117° |
| 2026-04-22 21:41 | 43.29449 | 4.70076 | 37191 ft | 493 kts | 117° |
| 2026-04-22 21:42 | 43.26691 | 4.78655 | 37194 ft | 490 kts | 108° |
| 2026-04-22 21:42 | 43.24255 | 4.87398 | 37181 ft | 490 kts | 108° |
| 2026-04-22 21:43 | 43.21809 | 4.96083 | 37198 ft | 490 kts | 109° |
| 2026-04-22 21:43 | 43.19335 | 5.04798 | 37187 ft | 491 kts | 109° |
| 2026-04-22 21:44 | 43.16857 | 5.13519 | 37178 ft | 491 kts | 109° |
| 2026-04-22 21:44 | 43.14376 | 5.22244 | 37174 ft | 491 kts | 109° |
| 2026-04-22 21:45 | 43.11889 | 5.30964 | 37173 ft | 492 kts | 109° |
| 2026-04-22 21:45 | 43.09391 | 5.39679 | 37182 ft | 492 kts | 109° |
| 2026-04-22 21:46 | 43.06900 | 5.48330 | 37183 ft | 492 kts | 109° |
| 2026-04-22 21:46 | 43.04387 | 5.57021 | 37176 ft | 492 kts | 109° |
| 2026-04-22 21:47 | 43.01864 | 5.65714 | 37179 ft | 492 kts | 109° |
| 2026-04-22 21:47 | 42.99341 | 5.74406 | 37201 ft | 492 kts | 109° |
| 2026-04-22 21:48 | 42.96809 | 5.83092 | 37186 ft | 492 kts | 109° |
| 2026-04-22 21:48 | 42.94269 | 5.91785 | 37182 ft | 493 kts | 109° |
| 2026-04-22 21:49 | 42.91720 | 6.00465 | 37183 ft | 493 kts | 109° |
| 2026-04-22 21:49 | 42.89155 | 6.09144 | 37207 ft | 493 kts | 109° |
| 2026-04-22 21:50 | 42.86581 | 6.17826 | 37177 ft | 494 kts | 109° |
| 2026-04-22 21:50 | 42.84004 | 6.26520 | 37157 ft | 494 kts | 109° |
| 2026-04-22 21:51 | 42.81434 | 6.35144 | 37164 ft | 494 kts | 109° |
| 2026-04-22 21:52 | 42.77546 | 6.48161 | 37192 ft | 494 kts | 109° |
| 2026-04-22 21:52 | 42.74939 | 6.56853 | 37172 ft | 495 kts | 109° |
| 2026-04-22 21:53 | 42.72330 | 6.65525 | 37161 ft | 496 kts | 109° |
| 2026-04-22 21:53 | 42.69717 | 6.74196 | 37161 ft | 496 kts | 109° |
| 2026-04-22 21:54 | 42.67082 | 6.82863 | 37160 ft | 496 kts | 110° |
| 2026-04-22 21:54 | 42.64436 | 6.91537 | 37166 ft | 497 kts | 110° |
| 2026-04-22 21:55 | 42.61801 | 7.00170 | 37152 ft | 498 kts | 110° |
| 2026-04-22 21:55 | 42.59137 | 7.08861 | 37148 ft | 499 kts | 110° |
| 2026-04-22 21:56 | 42.56462 | 7.17570 | 37144 ft | 499 kts | 110° |
| 2026-04-22 21:56 | 42.53785 | 7.26267 | 37143 ft | 500 kts | 110° |
| 2026-04-22 21:57 | 42.51098 | 7.34965 | 37142 ft | 500 kts | 110° |
| 2026-04-22 21:57 | 42.48399 | 7.43651 | 37147 ft | 500 kts | 110° |
| 2026-04-22 21:58 | 42.45711 | 7.52287 | 37148 ft | 500 kts | 110° |
| 2026-04-22 21:58 | 42.42999 | 7.60950 | 37169 ft | 500 kts | 110° |
| 2026-04-22 21:59 | 42.40717 | 7.68228 | 37147 ft | 501 kts | 110° |
| 2026-04-22 21:59 | 42.38000 | 7.76870 | 36228 ft | 508 kts | 110° |
| 2026-04-22 21:59 | 42.36602 | 7.81319 | 35004 ft | 514 kts | 110° |
| 2026-04-22 22:00 | 42.35203 | 7.85752 | 33992 ft | 510 kts | 109° |
| 2026-04-22 22:00 | 42.33803 | 7.90173 | 32881 ft | 514 kts | 110° |
| 2026-04-22 22:00 | 42.32346 | 7.94625 | 31729 ft | 521 kts | 114° |
| 2026-04-22 22:00 | 42.30477 | 7.98858 | 30757 ft | 525 kts | 124° |
| 2026-04-22 22:01 | 42.28174 | 8.02730 | 29343 ft | 534 kts | 133° |
| 2026-04-22 22:01 | 42.25655 | 8.06413 | 28360 ft | 531 kts | 133° |
| 2026-04-22 22:01 | 42.23163 | 8.10067 | 26871 ft | 526 kts | 132° |
| 2026-04-22 22:01 | 42.20683 | 8.13720 | 25174 ft | 531 kts | 132° |
| 2026-04-22 22:02 | 42.18220 | 8.17366 | 23880 ft | 534 kts | 132° |
| 2026-04-22 22:02 | 42.15741 | 8.21037 | 22884 ft | 522 kts | 132° |
| 2026-04-22 22:02 | 42.13328 | 8.24603 | 21510 ft | 510 kts | 132° |
| 2026-04-22 22:02 | 42.10972 | 8.28074 | 20515 ft | 493 kts | 132° |
| 2026-04-22 22:03 | 42.08680 | 8.31437 | 19587 ft | 478 kts | 132° |
| 2026-04-22 22:03 | 42.06459 | 8.34692 | 18691 ft | 465 kts | 132° |
| 2026-04-22 22:03 | 42.04297 | 8.37856 | 17728 ft | 456 kts | 133° |
| 2026-04-22 22:03 | 42.02149 | 8.40993 | 16886 ft | 456 kts | 132° |
| 2026-04-22 22:04 | 41.99999 | 8.44133 | 16052 ft | 456 kts | 132° |
| 2026-04-22 22:04 | 41.97852 | 8.47265 | 15236 ft | 455 kts | 132° |
| 2026-04-22 22:04 | 41.95704 | 8.50399 | 14452 ft | 454 kts | 132° |
| 2026-04-22 22:04 | 41.93570 | 8.53511 | 13648 ft | 453 kts | 132° |
| 2026-04-22 22:05 | 41.91446 | 8.56602 | 12985 ft | 446 kts | 132° |
| 2026-04-22 22:05 | 41.89379 | 8.59609 | 12196 ft | 443 kts | 132° |
| 2026-04-22 22:05 | 41.87318 | 8.62602 | 11722 ft | 432 kts | 131° |
| 2026-04-22 22:05 | 41.85320 | 8.65496 | 11568 ft | 412 kts | 132° |
| 2026-04-22 22:06 | 41.83413 | 8.68250 | 11440 ft | 393 kts | 132° |
| 2026-04-22 22:06 | 41.81593 | 8.70874 | 11316 ft | 374 kts | 132° |
| 2026-04-22 22:06 | 41.79879 | 8.73346 | 11197 ft | 349 kts | 131° |
| 2026-04-22 22:06 | 41.78182 | 8.75511 | 11022 ft | 329 kts | 142° |
| 2026-04-22 22:07 | 41.76255 | 8.77073 | 10597 ft | 320 kts | 156° |
| 2026-04-22 22:07 | 41.74167 | 8.77938 | 10345 ft | 311 kts | 171° |
| 2026-04-22 22:07 | 41.72026 | 8.78312 | 10257 ft | 311 kts | 174° |
| 2026-04-22 22:07 | 41.69882 | 8.78671 | 10123 ft | 310 kts | 174° |
| 2026-04-22 22:08 | 41.67727 | 8.79041 | 9591 ft | 315 kts | 173° |
| 2026-04-22 22:08 | 41.65579 | 8.79418 | 9314 ft | 308 kts | 173° |
| 2026-04-22 22:08 | 41.63468 | 8.79790 | 8914 ft | 304 kts | 173° |
| 2026-04-22 22:08 | 41.61379 | 8.80154 | 8281 ft | 301 kts | 173° |
| 2026-04-22 22:09 | 41.59342 | 8.80507 | 7677 ft | 297 kts | 173° |
| 2026-04-22 22:09 | 41.57304 | 8.80857 | 7067 ft | 294 kts | 173° |
| 2026-04-22 22:09 | 41.55287 | 8.81203 | 6457 ft | 291 kts | 172° |
| 2026-04-22 22:09 | 41.53307 | 8.81543 | 5922 ft | 283 kts | 172° |
| 2026-04-22 22:10 | 41.51370 | 8.81879 | 5344 ft | 277 kts | 169° |
| 2026-04-22 22:10 | 41.49590 | 8.82579 | 5142 ft | 256 kts | 154° |
| 2026-04-22 22:10 | 41.48107 | 8.83675 | 5025 ft | 233 kts | 146° |
| 2026-04-22 22:10 | 41.46781 | 8.84760 | 4919 ft | 218 kts | 146° |
| 2026-04-22 22:11 | 41.45490 | 8.85813 | 4834 ft | 217 kts | 145° |
| 2026-04-22 22:11 | 41.44208 | 8.86862 | 4734 ft | 215 kts | 146° |
| 2026-04-22 22:11 | 41.42934 | 8.87904 | 4646 ft | 214 kts | 143° |
| 2026-04-22 22:11 | 41.41647 | 8.88962 | 4162 ft | 223 kts | 142° |
| 2026-04-22 22:12 | 41.40314 | 8.90059 | 3651 ft | 224 kts | 143° |
| 2026-04-22 22:12 | 41.39197 | 8.91287 | 3588 ft | 194 kts | 117° |
| 2026-04-22 22:12 | 41.38908 | 8.92874 | 3476 ft | 172 kts | 84° |
| 2026-04-22 22:12 | 41.39287 | 8.94328 | 3293 ft | 160 kts | 64° |
| 2026-04-22 22:13 | 41.39777 | 8.95587 | 3043 ft | 146 kts | 65° |
| 2026-04-22 22:13 | 41.40225 | 8.96737 | 2842 ft | 133 kts | 65° |
| 2026-04-22 22:13 | 41.40636 | 8.97795 | 2673 ft | 125 kts | 65° |
| 2026-04-22 22:13 | 41.41032 | 8.98809 | 2513 ft | 122 kts | 65° |
| 2026-04-22 22:14 | 41.41604 | 8.99657 | 2321 ft | 128 kts | 40° |
| 2026-04-22 22:14 | 41.42407 | 9.00199 | 2062 ft | 131 kts | 32° |
| 2026-04-22 22:14 | 41.43209 | 9.00702 | 1883 ft | 128 kts | 34° |
| 2026-04-22 22:14 | 41.43996 | 9.01255 | 1694 ft | 125 kts | 36° |
| 2026-04-22 22:15 | 41.44684 | 9.01878 | 1533 ft | 118 kts | 50° |
| 2026-04-22 22:15 | 41.45246 | 9.02670 | 1360 ft | 117 kts | 52° |
| 2026-04-22 22:15 | 41.45817 | 9.03449 | 1277 ft | 117 kts | 50° |
| 2026-04-22 22:15 | 41.46385 | 9.04226 | 1210 ft | 117 kts | 50° |
| 2026-04-22 22:16 | 41.46961 | 9.05014 | 904 ft | 118 kts | 50° |
| 2026-04-22 22:16 | 41.47517 | 9.05819 | 789 ft | 119 kts | 52° |
| 2026-04-22 22:16 | 41.48089 | 9.06627 | 604 ft | 120 kts | 49° |
| 2026-04-22 22:16 | 41.48666 | 9.07404 | 353 ft | 118 kts | 48° |
| 2026-04-22 22:17 | 41.49213 | 9.08244 | 157 ft | 120 kts | 46° |
| 2026-04-22 22:17 | 41.49778 | 9.09042 | 58 ft | 111 kts | 46° |
| 2026-04-22 22:17 | 41.50158 | 9.09609 | 64 ft | 41 kts | 46° |
| 2026-04-22 22:17 | 41.50195 | 9.09681 | 65 ft | 0 kts | 92° |
| 2026-04-22 22:18 | 41.50179 | 9.09715 | 61 ft | 11 kts | 132° |
| 2026-04-22 22:18 | 41.50111 | 9.09799 | 69 ft | 8 kts | 140° |
| 2026-04-22 22:18 | 41.50057 | 9.09803 | 68 ft | 9 kts | 196° |
| 2026-04-22 22:18 | 41.50012 | 9.09822 | 65 ft | 5 kts | 138° |
| 2026-04-22 22:19 | 41.49995 | 9.09843 | 68 ft | 3 kts | 138° |
| 2026-04-22 22:19 | 41.49994 | 9.09844 | 68 ft | 0 kts | 138° |